Shadehill, South Dakota
Current Conditions -  °F | °C
As of 4:27 PM on Monday 22 Dec 2014 (Local Time) from KHEI Reporting Station
Light Snow Light Snow  
Wind Chill: 10°   Ceiling: 3500
Heat Index: 24°   Visibility: 2.5mi
Dew Point: 21°   Wind: 20mph
Humidity: 88%   Direction: 310°NW
Pressure: 29.65"   Gusts: 31mph
Location:  45.77°N, 102.18°W
Report Text: KHEI 222327Z AUTO 31017G27KT 2 1/2SM -SN BR FEW011 SCT020 OVC035 M04/M06 A2965 RMK AO2 PK WND 32029/2317 P0000 T10441061
Loading
Personal Weather Stations






























Interactive Weather Map New forecast layout! Learn more

10-Day Weather Forecast

Advertisements
Track Severe Weather on mobile